Time;durP1;ratioP1;P1;durP2;ratioP2;P2;SDS_P1;SDS_P2;PMS_P1;PMS_P2;Temp;Humidity;BMP_temperature;BMP_pressure;BME280_temperature;BME280_humidity;BME280_pressure;Samples;Min_cycle;Max_cycle;Signal;HPM_P1;HPM_P2
2023/05/01 00:01:36;;;;;;;23.75;12.20;;;13.50;99.90;;;;;;5072521;28;19920;-72
2023/05/01 00:04:02;;;;;;;17.30;12.43;;;13.50;99.90;;;;;;5073760;28;20028;-72
2023/05/01 00:06:28;;;;;;;20.63;12.43;;;13.30;99.90;;;;;;5073493;28;20107;-73
2023/05/01 00:08:53;;;;;;;16.77;12.07;;;13.40;99.90;;;;;;5072990;28;20136;-72
2023/05/01 00:11:19;;;;;;;17.03;11.43;;;13.30;99.90;;;;;;5056856;28;20221;-72
2023/05/01 00:13:45;;;;;;;19.08;12.27;;;13.30;99.90;;;;;;5068886;28;20029;-72
2023/05/01 00:16:11;;;;;;;16.67;12.63;;;13.20;99.90;;;;;;5075576;28;20078;-72
2023/05/01 00:18:37;;;;;;;25.75;13.10;;;13.20;99.90;;;;;;5068707;28;20127;-72
2023/05/01 00:21:03;;;;;;;15.68;11.23;;;13.20;99.90;;;;;;5075370;28;20039;-72
2023/05/01 00:23:29;;;;;;;16.80;12.57;;;13.10;99.90;;;;;;5079877;28;20123;-72
2023/05/01 00:25:54;;;;;;;17.90;12.13;;;13.10;99.90;;;;;;5071996;28;20028;-72
2023/05/01 00:28:20;;;;;;;21.93;13.23;;;13.10;99.90;;;;;;5069520;28;20496;-72
2023/05/01 00:30:46;;;;;;;19.60;13.10;;;13.10;99.90;;;;;;5069385;28;20055;-72
2023/05/01 00:33:12;;;;;;;23.90;13.87;;;13.10;99.90;;;;;;5072501;28;20028;-72
2023/05/01 00:35:37;;;;;;;19.73;12.38;;;13.20;99.90;;;;;;5070707;28;20036;-72
2023/05/01 00:38:03;;;;;;;26.67;15.43;;;13.20;99.90;;;;;;5071776;28;20035;-72
2023/05/01 00:40:29;;;;;;;21.33;14.50;;;13.20;99.90;;;;;;5076318;28;20024;-71
2023/05/01 00:42:55;;;;;;;17.93;13.23;;;13.30;99.90;;;;;;5068241;28;20495;-72
2023/05/01 00:45:21;;;;;;;20.30;12.82;;;13.20;99.90;;;;;;5074192;28;20056;-72
2023/05/01 00:47:46;;;;;;;17.47;12.70;;;13.20;99.90;;;;;;5077944;28;20078;-72
2023/05/01 00:50:12;;;;;;;21.47;13.27;;;13.10;99.90;;;;;;5073238;28;20107;-72
2023/05/01 00:52:38;;;;;;;17.83;12.70;;;13.20;99.90;;;;;;5082550;28;20275;-72
2023/05/01 00:55:04;;;;;;;20.17;14.13;;;13.20;99.90;;;;;;5073737;28;20434;-72
2023/05/01 00:57:31;;;;;;;22.42;14.05;;;13.20;99.90;;;;;;5073314;28;20028;-72
2023/05/01 00:59:57;;;;;;;20.67;14.27;;;13.20;99.90;;;;;;5083479;28;20036;-72
2023/05/01 01:02:22;;;;;;;17.97;13.03;;;13.20;99.90;;;;;;5087389;28;20040;-72
2023/05/01 01:04:48;;;;;;;20.20;12.90;;;13.20;99.90;;;;;;5082803;28;20481;-72
2023/05/01 01:07:35;;;;;;;15.13;12.52;;;13.30;99.90;;;;;;5089222;28;20282;-72
2023/05/01 01:10:31;;;;;;;17.50;12.38;;;13.30;99.90;;;;;;5067922;28;20043;-72
2023/05/01 01:13:15;;;;;;;16.80;12.40;;;13.30;99.90;;;;;;5079410;28;20034;-72
2023/05/01 01:15:56;;;;;;;16.50;12.57;;;13.30;99.90;;;;;;5078943;28;20032;-72
2023/05/01 01:18:33;;;;;;;18.67;12.80;;;13.30;99.90;;;;;;5067852;28;20127;-72
2023/05/01 01:21:26;;;;;;;;;;;13.30;99.90;;;;;;5073515;28;20103;-72
2023/05/01 01:23:54;;;;;;;14.60;11.40;;;13.40;99.90;;;;;;5043375;28;20371;-72
2023/05/01 01:26:33;;;;;;;17.85;12.07;;;13.40;99.90;;;;;;5078817;28;20047;-71
2023/05/01 01:29:20;;;;;;;15.20;11.90;;;13.20;99.90;;;;;;5066165;28;20164;-72
2023/05/01 01:31:52;;;;;;;14.10;11.20;;;13.20;99.90;;;;;;5066778;28;20031;-72
2023/05/01 01:34:46;;;;;;;19.27;12.25;;;13.40;99.90;;;;;;5070840;28;20074;-72
2023/05/01 01:37:38;;;;;;;17.73;11.95;;;13.40;99.90;;;;;;5072986;28;20043;-72
2023/05/01 01:40:11;;;;;;;19.75;11.70;;;13.40;99.90;;;;;;5044525;28;20519;-72
2023/05/01 01:42:41;;;;;;;13.73;10.50;;;13.50;99.90;;;;;;5075350;28;20071;-72
2023/05/01 01:45:21;;;;;;;17.20;10.77;;;13.40;99.90;;;;;;5072049;28;20024;-72
2023/05/01 01:47:50;;;;;;;17.15;10.75;;;13.50;99.90;;;;;;5068924;28;20032;-72
2023/05/01 01:50:17;;;;;;;17.70;10.65;;;13.40;99.90;;;;;;5074308;28;20045;-72
2023/05/01 01:52:46;;;;;;;14.77;9.88;;;13.50;99.90;;;;;;5070981;28;20052;-71
2023/05/01 01:55:13;;;;;;;13.35;9.80;;;13.50;99.90;;;;;;5071115;28;20032;-72
2023/05/01 01:57:42;;;;;;;15.40;10.00;;;13.50;99.90;;;;;;5071611;28;20029;-72
2023/05/01 02:00:11;;;;;;;14.55;10.18;;;13.50;99.90;;;;;;5076758;28;20020;-72
2023/05/01 02:02:38;;;;;;;15.35;9.60;;;13.60;99.90;;;;;;5051384;28;20051;-72
2023/05/01 02:05:10;;;;;;;19.17;10.02;;;13.50;99.90;;;;;;5083464;28;20024;-73
2023/05/01 02:07:39;;;;;;;13.73;9.35;;;13.60;99.90;;;;;;5072168;28;20645;-72
2023/05/01 02:10:07;;;;;;;16.05;9.82;;;13.60;99.90;;;;;;5071528;28;20092;-72
2023/05/01 02:12:34;;;;;;;11.77;8.45;;;13.60;99.90;;;;;;5068232;28;20017;-72
2023/05/01 02:14:59;;;;;;;;;;;13.70;99.90;;;;;;5070660;28;20119;-72
2023/05/01 02:17:26;;;;;;;12.18;8.73;;;13.70;99.90;;;;;;5072015;28;19999;-71
2023/05/01 02:19:54;;;;;;;12.63;7.80;;;13.60;99.90;;;;;;5075940;28;20096;-71
2023/05/01 02:22:25;;;;;;;12.57;8.88;;;13.70;99.90;;;;;;5072791;28;20028;-72
2023/05/01 02:24:53;;;;;;;12.57;7.55;;;13.60;99.90;;;;;;5075820;28;20040;-72
2023/05/01 02:27:57;;;;;;;10.02;8.23;;;13.70;99.90;;;;;;5073913;28;20050;-72
2023/05/01 02:30:23;;;;;;;10.05;8.00;;;13.70;99.90;;;;;;5068127;28;20412;-72
2023/05/01 02:32:48;;;;;;;11.93;8.03;;;13.60;99.90;;;;;;5072166;28;20032;-72
2023/05/01 02:35:15;;;;;;;12.70;7.67;;;13.60;99.90;;;;;;5074405;28;20060;-72
2023/05/01 02:37:41;;;;;;;12.45;8.20;;;13.60;99.90;;;;;;5065277;28;20032;-72
2023/05/01 02:40:08;;;;;;;9.60;7.43;;;13.60;99.90;;;;;;5072234;28;20027;-72
2023/05/01 02:42:35;;;;;;;12.35;7.43;;;13.50;99.90;;;;;;5076503;28;20047;-72
2023/05/01 02:45:07;;;;;;;15.00;7.60;;;13.60;99.90;;;;;;5092427;28;20031;-72
2023/05/01 02:47:38;;;;;;;8.77;7.38;;;13.60;99.90;;;;;;5074350;28;20024;-72
2023/05/01 02:50:05;;;;;;;8.98;6.85;;;13.60;99.90;;;;;;5059099;28;20057;-72
2023/05/01 02:52:30;;;;;;;10.65;6.85;;;13.70;99.90;;;;;;5069967;28;20113;-72
2023/05/01 02:54:56;;;;;;;8.00;6.93;;;13.70;99.90;;;;;;5074346;28;20508;-72
2023/05/01 02:57:22;;;;;;;8.98;6.43;;;13.70;99.90;;;;;;5070270;28;20682;-72
2023/05/01 02:59:48;;;;;;;10.40;7.25;;;13.70;99.90;;;;;;5073568;28;20036;-72
2023/05/01 03:02:14;;;;;;;11.60;7.23;;;13.70;99.90;;;;;;5077294;28;20058;-72
2023/05/01 03:04:43;;;;;;;10.95;7.43;;;13.70;99.90;;;;;;5073746;28;20032;-72
2023/05/01 03:07:09;;;;;;;9.43;7.07;;;13.70;99.90;;;;;;5075997;28;20028;-72
2023/05/01 03:09:34;;;;;;;18.53;7.80;;;13.60;99.90;;;;;;5068647;28;20041;-73
2023/05/01 03:12:01;;;;;;;12.15;8.15;;;13.70;99.90;;;;;;5067209;28;20448;-72
2023/05/01 03:14:28;;;;;;;14.57;8.05;;;13.70;99.90;;;;;;5075905;28;20036;-72
2023/05/01 03:16:54;;;;;;;11.25;7.88;;;13.70;99.90;;;;;;5074000;28;20412;-72
2023/05/01 03:19:20;;;;;;;;;;;13.60;99.90;;;;;;5076943;28;20028;-72
2023/05/01 03:21:45;;;;;;;10.25;6.95;;;13.60;99.90;;;;;;5075996;28;19915;-72
2023/05/01 03:24:11;;;;;;;10.80;7.63;;;13.60;99.90;;;;;;5058245;28;20067;-72
2023/05/01 03:26:37;;;;;;;10.13;7.90;;;13.70;99.90;;;;;;5056209;28;20484;-72
2023/05/01 03:29:02;;;;;;;10.30;7.33;;;13.60;99.90;;;;;;5074539;28;20048;-72
2023/05/01 03:31:28;;;;;;;12.13;6.93;;;13.60;99.90;;;;;;5073909;28;20044;-72
2023/05/01 03:33:53;;;;;;;9.07;7.17;;;13.70;99.90;;;;;;5072764;28;20051;-72
2023/05/01 03:36:21;;;;;;;11.17;7.63;;;13.70;99.90;;;;;;5062366;28;20623;-72
2023/05/01 03:38:46;;;;;;;11.02;7.70;;;13.60;99.90;;;;;;5073804;28;20085;-72
2023/05/01 03:41:12;;;;;;;12.93;7.43;;;13.60;99.90;;;;;;5072979;28;20024;-72
2023/05/01 03:43:38;;;;;;;9.40;7.63;;;13.60;99.90;;;;;;5072742;28;20032;-72
2023/05/01 03:46:04;;;;;;;11.77;8.33;;;13.60;99.90;;;;;;5075462;28;20029;-70
2023/05/01 03:48:29;;;;;;;9.40;7.50;;;13.60;99.90;;;;;;5075492;28;20116;-71
2023/05/01 03:50:55;;;;;;;9.20;7.43;;;13.70;99.90;;;;;;5073098;28;20054;-71
2023/05/01 03:53:21;;;;;;;10.35;7.80;;;13.60;99.90;;;;;;5066392;28;20047;-70
2023/05/01 03:55:47;;;;;;;9.73;7.50;;;13.70;99.90;;;;;;5072131;28;20036;-71
2023/05/01 03:58:12;;;;;;;11.00;7.43;;;13.60;99.90;;;;;;5065443;28;20111;-72
2023/05/01 04:00:38;;;;;;;14.57;9.10;;;13.60;99.90;;;;;;5065610;28;20067;-73
2023/05/01 04:03:05;;;;;;;13.95;8.90;;;13.60;99.90;;;;;;5072554;28;20038;-72
2023/05/01 04:05:30;;;;;;;14.30;8.80;;;13.60;99.90;;;;;;5069062;28;20062;-71
2023/05/01 04:07:56;;;;;;;15.03;9.40;;;13.60;99.90;;;;;;5068617;28;20040;-71
2023/05/01 04:10:22;;;;;;;12.43;8.40;;;13.60;99.90;;;;;;5072006;28;20040;-72
2023/05/01 04:12:48;;;;;;;12.88;8.73;;;13.60;99.90;;;;;;5071634;28;20036;-72
2023/05/01 04:15:14;;;;;;;9.07;7.07;;;13.50;99.90;;;;;;5070425;28;20028;-72
2023/05/01 04:17:42;;;;;;;13.30;7.32;;;13.50;99.90;;;;;;5063551;28;20035;-72
2023/05/01 04:20:09;;;;;;;10.45;7.97;;;13.50;99.90;;;;;;5071636;28;20025;-72
2023/05/01 04:22:36;;;;;;;9.27;7.60;;;13.40;99.90;;;;;;5067179;28;20036;-72
2023/05/01 04:25:03;;;;;;;10.88;7.82;;;13.50;99.90;;;;;;5077885;28;20349;-72
2023/05/01 04:27:29;;;;;;;10.80;8.00;;;13.50;99.90;;;;;;5087086;28;20035;-72
2023/05/01 04:29:55;;;;;;;13.60;7.93;;;13.50;99.90;;;;;;5088302;28;20036;-72
2023/05/01 04:32:21;;;;;;;15.00;8.20;;;13.50;99.90;;;;;;5070901;28;20145;-71
2023/05/01 04:34:49;;;;;;;10.23;7.63;;;13.50;99.90;;;;;;5072861;28;20510;-71
2023/05/01 04:37:17;;;;;;;12.13;7.68;;;13.50;99.90;;;;;;5068843;28;20036;-72
2023/05/01 04:39:43;;;;;;;14.38;7.85;;;13.50;99.90;;;;;;5080194;28;20320;-72
2023/05/01 04:42:09;;;;;;;11.00;8.18;;;13.40;99.90;;;;;;5073948;28;20493;-70
2023/05/01 04:44:36;;;;;;;12.67;7.70;;;13.50;99.90;;;;;;5069360;28;20031;-71
2023/05/01 04:47:03;;;;;;;15.25;8.13;;;13.40;99.90;;;;;;5073562;28;20025;-71
2023/05/01 04:49:29;;;;;;;11.50;8.32;;;13.40;99.90;;;;;;5072060;28;20040;-72
2023/05/01 04:51:54;;;;;;;14.52;9.43;;;13.40;99.90;;;;;;5053570;28;20043;-72
2023/05/01 04:54:21;;;;;;;10.80;8.00;;;13.40;99.90;;;;;;5069952;28;20393;-73
2023/05/01 04:56:46;;;;;;;10.50;7.90;;;13.40;99.90;;;;;;5073528;28;20025;-72
2023/05/01 04:59:12;;;;;;;11.40;8.67;;;13.40;99.90;;;;;;5076214;28;20415;-71
2023/05/01 05:01:38;;;;;;;11.57;8.33;;;13.40;99.90;;;;;;5067290;28;20025;-72
2023/05/01 05:04:04;;;;;;;16.07;9.93;;;13.40;99.90;;;;;;5071798;28;20089;-72
2023/05/01 05:06:30;;;;;;;14.55;9.02;;;13.40;99.90;;;;;;5075536;28;20087;-72
2023/05/01 05:08:56;;;;;;;14.98;8.30;;;13.40;99.90;;;;;;5072537;28;20470;-72
2023/05/01 05:11:22;;;;;;;14.15;8.25;;;13.40;99.90;;;;;;5069248;28;20067;-72
2023/05/01 05:13:47;;;;;;;11.27;8.50;;;13.40;99.90;;;;;;5069391;28;20060;-73
2023/05/01 05:16:14;;;;;;;17.40;8.63;;;13.50;99.90;;;;;;5072799;28;20865;-73
2023/05/01 05:18:39;;;;;;;13.18;9.13;;;13.50;99.90;;;;;;5073405;28;20075;-73
2023/05/01 05:21:06;;;;;;;12.33;8.27;;;13.50;99.90;;;;;;5068558;28;20511;-72
2023/05/01 05:23:31;;;;;;;10.73;7.57;;;13.50;99.90;;;;;;5069742;28;20040;-72
2023/05/01 05:26:00;;;;;;;10.87;8.13;;;13.50;99.90;;;;;;5068983;28;20033;-71
2023/05/01 05:28:26;;;;;;;10.68;7.72;;;13.50;99.90;;;;;;5077666;28;20024;-72
2023/05/01 05:30:51;;;;;;;9.98;8.10;;;13.50;99.90;;;;;;5072115;28;20063;-72
2023/05/01 05:33:17;;;;;;;10.83;7.57;;;13.60;99.90;;;;;;5069617;28;20055;-73
2023/05/01 05:35:43;;;;;;;11.03;8.03;;;13.70;99.90;;;;;;5074415;28;20040;-73
2023/05/01 05:38:08;;;;;;;11.47;7.77;;;13.70;99.90;;;;;;5069976;28;20024;-73
2023/05/01 05:40:34;;;;;;;10.80;7.93;;;13.80;99.90;;;;;;5068777;28;20497;-73
2023/05/01 05:42:59;;;;;;;9.37;7.10;;;13.80;99.90;;;;;;5071124;28;20035;-73
2023/05/01 05:45:25;;;;;;;12.70;7.43;;;14.00;99.90;;;;;;5072793;28;20543;-73
2023/05/01 05:47:50;;;;;;;10.87;7.90;;;14.00;99.90;;;;;;5068794;28;20028;-73
2023/05/01 05:50:16;;;;;;;8.73;7.27;;;14.10;99.90;;;;;;5070518;28;20125;-73
2023/05/01 05:52:41;;;;;;;9.63;7.30;;;14.00;99.90;;;;;;5078130;28;20036;-71
2023/05/01 05:55:08;;;;;;;9.80;7.63;;;14.10;99.90;;;;;;5073248;28;20040;-71
2023/05/01 05:57:36;;;;;;;13.05;7.68;;;14.20;99.90;;;;;;5074030;28;20552;-72
2023/05/01 06:00:04;;;;;;;10.95;7.38;;;14.10;99.90;;;;;;5070527;28;20543;-72
2023/05/01 06:02:30;;;;;;;9.93;7.55;;;14.20;99.90;;;;;;5071116;28;20035;-72
2023/05/01 06:04:56;;;;;;;10.57;7.38;;;14.20;99.90;;;;;;5068950;28;20400;-71
2023/05/01 06:07:23;;;;;;;10.27;7.82;;;14.30;99.90;;;;;;5068353;28;20047;-72
2023/05/01 06:09:48;;;;;;;12.10;6.85;;;14.30;99.90;;;;;;5067333;28;20504;-72
2023/05/01 06:12:15;;;;;;;11.53;6.87;;;14.40;99.90;;;;;;5070657;28;20040;-70
2023/05/01 06:14:40;;;;;;;8.82;7.05;;;14.60;99.90;;;;;;5086115;28;20041;-71
2023/05/01 06:17:07;;;;;;;9.90;7.20;;;15.00;99.90;;;;;;5090762;28;20028;-72
2023/05/01 06:19:33;;;;;;;10.07;7.47;;;15.20;99.90;;;;;;5069115;28;20041;-71
2023/05/01 06:21:59;;;;;;;11.13;7.70;;;15.10;99.90;;;;;;5071535;28;20032;-71
2023/05/01 06:24:26;;;;;;;13.20;8.03;;;15.10;99.90;;;;;;5060212;28;20408;-72
2023/05/01 06:26:52;;;;;;;14.63;7.25;;;15.00;99.90;;;;;;5063574;28;20111;-72
2023/05/01 06:29:18;;;;;;;10.30;7.10;;;15.10;99.90;;;;;;5073173;28;20124;-72
2023/05/01 06:31:44;;;;;;;13.25;7.85;;;15.20;99.90;;;;;;5064268;28;20036;-72
2023/05/01 06:34:10;;;;;;;10.77;7.50;;;15.40;99.90;;;;;;5068221;28;20044;-72
2023/05/01 06:36:35;;;;;;;12.00;7.10;;;15.30;99.90;;;;;;5064809;28;20037;-72
2023/05/01 06:39:01;;;;;;;10.33;6.77;;;15.20;99.90;;;;;;5061777;28;20079;-73
2023/05/01 06:41:27;;;;;;;10.60;6.87;;;15.10;99.90;;;;;;5065444;28;20500;-74
2023/05/01 06:43:53;;;;;;;8.48;6.57;;;14.90;99.90;;;;;;5069561;28;20021;-74
2023/05/01 06:46:18;;;;;;;9.87;7.30;;;15.00;99.90;;;;;;5066161;28;20095;-72
2023/05/01 06:48:44;;;;;;;10.67;7.90;;;15.00;99.90;;;;;;5070205;28;20048;-72
2023/05/01 06:51:09;;;;;;;8.73;6.90;;;14.90;99.90;;;;;;5065321;28;20110;-72
2023/05/01 06:53:36;;;;;;;10.70;7.70;;;14.90;99.90;;;;;;5067853;28;20043;-72
2023/05/01 06:56:01;;;;;;;8.13;6.90;;;14.80;99.90;;;;;;5046449;28;20634;-72
2023/05/01 06:58:27;;;;;;;10.00;7.83;;;14.90;99.90;;;;;;5067635;28;20029;-72
2023/05/01 07:00:53;;;;;;;9.77;6.93;;;15.00;99.90;;;;;;5065383;28;20044;-74
2023/05/01 07:03:18;;;;;;;8.90;6.93;;;15.00;99.90;;;;;;5070358;28;20028;-74
2023/05/01 07:05:44;;;;;;;8.50;6.93;;;15.10;99.90;;;;;;5068467;28;20047;-74
2023/05/01 07:08:09;;;;;;;12.83;6.80;;;15.20;99.90;;;;;;5069583;28;21475;-74
2023/05/01 07:10:35;;;;;;;9.77;6.97;;;15.70;99.90;;;;;;5064756;28;20111;-73
2023/05/01 07:13:01;;;;;;;10.17;6.90;;;16.10;99.90;;;;;;5068296;28;20604;-74
2023/05/01 07:15:26;;;;;;;11.00;6.67;;;16.40;99.90;;;;;;5069547;28;20894;-73
2023/05/01 07:17:52;;;;;;;13.87;7.70;;;16.70;99.90;;;;;;5067785;28;20028;-73
2023/05/01 07:20:18;;;;;;;8.83;6.70;;;16.80;99.90;;;;;;5067298;28;20290;-74
2023/05/01 07:22:43;;;;;;;10.07;6.47;;;16.50;99.90;;;;;;5067536;28;20032;-74
2023/05/01 07:25:09;;;;;;;8.70;7.15;;;16.30;99.90;;;;;;5051404;28;20036;-74
2023/05/01 07:27:35;;;;;;;8.37;6.53;;;16.10;99.90;;;;;;5060042;28;20120;-78
2023/05/01 07:30:04;;;;;;;11.70;6.67;;;16.00;99.90;;;;;;5069942;28;20298;-75
2023/05/01 07:32:30;;;;;;;10.55;7.13;;;15.80;99.90;;;;;;5069683;28;20104;-82
2023/05/01 07:34:57;;;;;;;7.13;5.93;;;15.70;99.90;;;;;;5067658;28;20379;-77
2023/05/01 07:37:23;;;;;;;11.93;7.15;;;15.50;99.90;;;;;;5071008;28;20035;-73
2023/05/01 07:39:49;;;;;;;7.60;6.00;;;15.50;99.90;;;;;;5065463;28;20052;-76
2023/05/01 07:42:14;;;;;;;21.43;9.20;;;15.50;99.90;;;;;;5068114;28;20036;-75
2023/05/01 07:44:40;;;;;;;11.60;6.23;;;15.30;99.90;;;;;;5066366;28;20581;-75
2023/05/01 07:47:07;;;;;;;12.60;6.47;;;15.30;99.90;;;;;;5066001;28;20020;-75
2023/05/01 07:49:38;;;;;;;;;;;15.50;99.90;;;;;;5071160;28;21872;-76
2023/05/01 07:52:06;;;;;;;8.52;6.05;;;15.40;99.90;;;;;;5076327;28;19912;-73
2023/05/01 07:54:32;;;;;;;11.50;6.68;;;15.30;99.90;;;;;;5072697;28;20028;-74
2023/05/01 07:56:58;;;;;;;9.75;7.32;;;15.40;99.90;;;;;;5074171;28;20036;-74
2023/05/01 07:59:23;;;;;;;9.77;7.23;;;15.40;99.90;;;;;;5095712;28;20020;-80
2023/05/01 08:01:49;;;;;;;22.00;7.90;;;15.30;99.90;;;;;;5089847;28;20032;-76
2023/05/01 08:04:16;;;;;;;18.80;7.85;;;15.30;99.90;;;;;;5075256;28;20487;-79
2023/05/01 08:06:42;;;;;;;;;;;15.40;99.90;;;;;;5071762;28;20047;-77
2023/05/01 08:09:08;;;;;;;11.55;7.88;;;15.60;99.90;;;;;;5077874;28;19919;-76
2023/05/01 08:11:34;;;;;;;11.23;7.20;;;15.70;99.90;;;;;;5073866;28;20035;-79
2023/05/01 08:13:59;;;;;;;8.63;6.75;;;15.90;99.90;;;;;;5075411;28;20491;-77
2023/05/01 08:16:26;;;;;;;12.00;7.27;;;16.00;99.90;;;;;;5074666;28;20029;-76
2023/05/01 08:18:51;;;;;;;9.63;7.38;;;16.00;99.90;;;;;;5071829;28;20035;-79
2023/05/01 08:21:17;;;;;;;11.83;7.57;;;16.10;99.90;;;;;;5073121;28;20150;-78
2023/05/01 08:23:42;;;;;;;7.87;6.63;;;16.40;99.90;;;;;;5073406;28;20036;-77
2023/05/01 08:26:08;;;;;;;10.73;7.47;;;16.70;99.90;;;;;;5073422;28;20403;-78
2023/05/01 08:28:34;;;;;;;10.90;7.07;;;17.00;99.90;;;;;;5074275;28;20043;-78
2023/05/01 08:31:00;;;;;;;10.45;7.43;;;17.30;99.90;;;;;;5075082;28;20043;-78
2023/05/01 08:33:25;;;;;;;10.40;6.93;;;17.40;99.90;;;;;;5060916;28;20044;-82
2023/05/01 08:35:51;;;;;;;10.00;7.20;;;17.50;99.90;;;;;;5079316;28;20044;-78
2023/05/01 08:38:17;;;;;;;9.98;6.68;;;18.20;99.90;;;;;;5076074;28;20036;-79
2023/05/01 08:40:49;;;;;;;8.80;6.20;;;19.60;98.10;;;;;;5075921;28;20032;-78
2023/05/01 08:43:16;;;;;;;9.85;6.40;;;19.10;95.50;;;;;;5069685;28;20299;-77
2023/05/01 08:45:45;;;;;;;10.82;6.15;;;19.30;95.30;;;;;;5073605;28;20028;-78
2023/05/01 08:48:11;;;;;;;6.72;5.53;;;19.30;96.00;;;;;;5074808;28;20059;-80
2023/05/01 08:50:39;;;;;;;7.22;6.03;;;19.20;94.20;;;;;;5071661;28;20036;-81
2023/05/01 08:53:07;;;;;;;7.35;5.68;;;18.60;94.50;;;;;;5055117;28;20036;-79
2023/05/01 08:55:35;;;;;;;9.60;5.63;;;18.90;94.80;;;;;;5073312;28;20059;-81
2023/05/01 08:58:02;;;;;;;13.98;6.00;;;19.70;94.30;;;;;;5070481;28;20561;-78
2023/05/01 09:00:29;;;;;;;5.97;4.80;;;20.20;92.90;;;;;;5067928;28;20025;-80
2023/05/01 09:02:59;;;;;;;11.32;6.38;;;20.70;92.60;;;;;;5070051;28;20040;-74
2023/05/01 09:05:25;;;;;;;14.82;5.90;;;20.30;92.40;;;;;;5054430;28;20045;-76
2023/05/01 09:07:51;;;;;;;;;;;20.20;92.40;;;;;;5048022;28;20123;-74
2023/05/01 09:10:17;;;;;;;6.38;4.95;;;19.50;92.30;;;;;;5070202;28;20040;-75
2023/05/01 09:12:44;;;;;;;;;;;19.40;93.10;;;;;;5069588;28;20120;-73
2023/05/01 09:15:11;;;;;;;6.82;4.85;;;19.30;91.60;;;;;;5066235;28;19916;-72
2023/05/01 09:17:37;;;;;;;12.88;5.43;;;19.30;92.30;;;;;;5066666;28;20119;-73
2023/05/01 09:20:07;;;;;;;6.18;4.65;;;19.60;91.50;;;;;;5066091;28;20101;-73
2023/05/01 09:22:34;;;;;;;8.65;5.20;;;19.80;92.30;;;;;;5073107;28;20040;-72
2023/05/01 09:25:00;;;;;;;4.60;4.15;;;19.70;91.10;;;;;;5054755;28;21293;-72
2023/05/01 09:27:33;;;;;;;5.28;4.50;;;20.10;88.50;;;;;;5041055;28;20048;-72
2023/05/01 09:29:59;;;;;;;5.10;4.60;;;20.50;88.70;;;;;;5073588;28;20056;-72
2023/05/01 09:32:28;;;;;;;5.07;4.40;;;22.40;84.70;;;;;;5028489;28;20049;-70
2023/05/01 09:35:07;;;;;;;14.65;4.85;;;22.70;81.50;;;;;;5067103;28;20032;-72
2023/05/01 09:37:34;;;;;;;95.78;16.10;;;26.20;76.60;;;;;;5071824;28;20507;-74
2023/05/01 09:40:09;;;;;;;51.20;11.00;;;27.20;70.40;;;;;;5066401;28;20263;-72
2023/05/01 09:42:49;;;;;;;29.27;7.72;;;27.60;66.60;;;;;;5068500;28;20049;-75
2023/05/01 09:45:16;;;;;;;21.70;7.07;;;28.70;64.40;;;;;;5085992;28;20063;-71
2023/05/01 09:47:45;;;;;;;19.67;6.80;;;29.20;61.70;;;;;;5041748;28;21209;-73
2023/05/01 09:50:38;;;;;;;6.05;3.15;;;28.40;64.20;;;;;;5014797;28;20052;-78
2023/05/01 09:53:05;;;;;;;4.80;3.17;;;27.40;62.10;;;;;;5056562;28;20166;-80
2023/05/01 09:55:31;;;;;;;4.15;3.10;;;25.40;64.30;;;;;;5068895;28;20087;-78
2023/05/01 09:57:57;;;;;;;;;;;24.30;67.60;;;;;;5071891;28;20059;-80
2023/05/01 10:00:24;;;;;;;4.22;2.90;;;23.40;67.80;;;;;;5065609;28;19954;-80
2023/05/01 10:02:50;;;;;;;;;;;22.30;70.90;;;;;;5068941;28;20378;-78
2023/05/01 10:05:16;;;;;;;6.78;3.35;;;23.00;71.90;;;;;;5045837;28;19969;-81
2023/05/01 10:07:59;;;;;;;4.15;3.60;;;22.50;71.90;;;;;;5042543;28;20047;-79
2023/05/01 10:10:25;;;;;;;5.05;3.38;;;22.20;72.20;;;;;;5066771;28;20132;-82
2023/05/01 10:12:51;;;;;;;4.82;3.00;;;22.20;72.50;;;;;;5071746;28;20115;-79
2023/05/01 10:15:17;;;;;;;6.68;3.90;;;22.10;70.20;;;;;;5070037;28;20436;-78
2023/05/01 10:17:43;;;;;;;;;;;21.80;73.90;;;;;;5069194;28;20799;-78
2023/05/01 10:20:12;;;;;;;5.70;3.33;;;21.80;72.90;;;;;;5072179;28;19948;-79
2023/05/01 10:22:41;;;;;;;3.55;3.25;;;21.40;74.30;;;;;;5028803;28;20056;-79
2023/05/01 10:25:08;;;;;;;4.28;3.33;;;22.70;70.90;;;;;;4988751;28;20049;-78
2023/05/01 10:27:36;;;;;;;4.78;3.30;;;21.60;73.00;;;;;;5005029;28;20051;-80
2023/05/01 10:30:04;;;;;;;6.80;3.35;;;21.90;73.10;;;;;;5012776;28;20063;-81
2023/05/01 10:32:33;;;;;;;3.88;2.97;;;21.60;73.40;;;;;;5026162;28;20044;-78
2023/05/01 10:35:14;;;;;;;3.78;3.20;;;21.00;71.60;;;;;;5040385;28;20040;-75
2023/05/01 10:37:58;;;;;;;3.25;2.92;;;20.70;73.70;;;;;;5029128;28;20045;-73
2023/05/01 10:40:39;;;;;;;5.40;2.80;;;21.00;73.50;;;;;;5068316;28;20028;-75
2023/05/01 10:43:26;;;;;;;4.60;2.88;;;22.70;71.90;;;;;;5061827;28;20028;-74
2023/05/01 10:45:53;;;;;;;3.90;2.97;;;21.80;69.90;;;;;;5052540;28;20365;-76
2023/05/01 10:48:37;;;;;;;3.53;3.03;;;21.30;73.50;;;;;;5066420;28;20515;-75
2023/05/01 10:51:29;;;;;;;3.80;3.05;;;21.60;73.90;;;;;;5061740;28;20032;-73
2023/05/01 10:54:12;;;;;;;3.42;2.60;;;21.60;71.50;;;;;;5059841;28;20049;-73
2023/05/01 10:56:38;;;;;;;5.10;3.70;;;21.60;71.00;;;;;;5066234;28;20459;-74
2023/05/01 10:59:04;;;;;;;6.27;3.27;;;22.00;72.00;;;;;;5069408;28;20029;-74
2023/05/01 11:01:41;;;;;;;4.05;2.83;;;21.90;73.30;;;;;;5067864;28;20037;-76
2023/05/01 11:04:26;;;;;;;3.85;3.25;;;21.50;72.70;;;;;;5051061;28;20153;-74
2023/05/01 11:07:04;;;;;;;4.60;2.78;;;22.00;73.40;;;;;;5065928;28;20488;-74
2023/05/01 11:09:38;;;;;;;4.97;3.42;;;22.80;71.40;;;;;;5066603;28;20412;-74
2023/05/01 11:12:05;;;;;;;4.88;3.17;;;23.50;71.40;;;;;;5058312;28;20029;-75
2023/05/01 11:14:52;;;;;;;5.00;2.60;;;23.60;68.80;;;;;;5038774;28;20511;-75
2023/05/01 11:17:37;;;;;;;;;;;23.90;71.20;;;;;;5066988;28;20028;-74
2023/05/01 11:20:03;;;;;;;2.75;2.55;;;24.00;67.50;;;;;;5015404;28;20418;-78
2023/05/01 11:22:30;;;;;;;3.92;3.00;;;24.30;68.30;;;;;;5064724;28;20039;-76
2023/05/01 11:24:56;;;;;;;3.45;2.55;;;24.40;65.20;;;;;;5067177;28;20036;-79
2023/05/01 11:27:21;;;;;;;3.08;2.28;;;23.50;67.60;;;;;;5078773;28;20081;-76
2023/05/01 11:29:49;;;;;;;3.08;2.78;;;24.10;67.20;;;;;;5092769;28;20044;-76
2023/05/01 11:32:18;;;;;;;2.65;2.25;;;23.90;66.60;;;;;;5076257;28;20029;-77
2023/05/01 11:34:45;;;;;;;3.70;2.53;;;24.50;67.20;;;;;;5067989;28;20028;-77
2023/05/01 11:37:11;;;;;;;3.50;2.42;;;24.20;64.40;;;;;;5068218;28;20056;-77
2023/05/01 11:39:37;;;;;;;2.75;2.15;;;24.40;63.60;;;;;;5067719;28;20064;-77
2023/05/01 11:42:09;;;;;;;3.47;2.23;;;24.20;64.90;;;;;;5068118;28;20116;-77
2023/05/01 11:44:36;;;;;;;2.80;1.98;;;24.20;62.80;;;;;;5068824;28;20024;-77
2023/05/01 11:47:01;;;;;;;3.08;2.20;;;24.40;68.00;;;;;;5066792;28;20071;-75
2023/05/01 11:49:27;;;;;;;2.63;2.17;;;24.70;66.80;;;;;;5066851;28;20057;-76
2023/05/01 11:51:57;;;;;;;3.72;2.33;;;25.10;68.50;;;;;;5064092;28;20467;-77
2023/05/01 11:54:22;;;;;;;3.70;2.20;;;24.50;65.60;;;;;;5066145;28;20464;-75
2023/05/01 11:56:58;;;;;;;4.70;2.50;;;23.60;65.40;;;;;;5072336;28;20071;-76
2023/05/01 11:59:24;;;;;;;6.28;1.85;;;24.20;65.50;;;;;;5072812;28;20127;-76
2023/05/01 12:01:50;;;;;;;7.28;2.15;;;24.20;66.60;;;;;;5061028;28;20021;-76
2023/05/01 12:04:25;;;;;;;4.70;2.42;;;23.20;61.90;;;;;;5068043;28;20058;-76
2023/05/01 12:06:51;;;;;;;3.00;1.95;;;23.10;65.90;;;;;;5045375;28;20029;-76
2023/05/01 12:09:21;;;;;;;3.38;2.38;;;22.90;65.30;;;;;;5067380;28;20539;-77
2023/05/01 12:11:49;;;;;;;3.60;2.40;;;22.50;66.90;;;;;;5068284;28;20031;-74
2023/05/01 12:14:16;;;;;;;3.53;2.20;;;22.30;65.70;;;;;;5066647;28;20435;-76
2023/05/01 12:16:43;;;;;;;2.50;2.28;;;22.20;67.50;;;;;;5070426;28;20035;-76
2023/05/01 12:19:11;;;;;;;4.68;1.98;;;22.30;63.40;;;;;;5066013;28;20028;-74
2023/05/01 12:21:37;;;;;;;5.90;2.45;;;21.70;66.30;;;;;;5070324;28;20775;-77
2023/05/01 12:24:17;;;;;;;4.05;2.40;;;21.80;67.50;;;;;;5066636;28;20029;-75
2023/05/01 12:26:44;;;;;;;2.40;2.17;;;22.00;68.90;;;;;;5062006;28;20129;-72
2023/05/01 12:29:10;;;;;;;3.50;1.92;;;22.30;69.50;;;;;;5063336;28;20115;-74
2023/05/01 12:31:44;;;;;;;4.43;2.40;;;22.50;68.20;;;;;;5064124;28;20599;-72
2023/05/01 12:34:10;;;;;;;5.70;2.10;;;22.50;68.40;;;;;;5066109;28;20032;-75
2023/05/01 12:36:36;;;;;;;9.73;2.13;;;22.20;69.00;;;;;;5064036;28;20655;-74
2023/05/01 12:39:11;;;;;;;2.83;1.83;;;22.10;68.80;;;;;;5059650;28;20082;-75
2023/05/01 12:41:41;;;;;;;2.00;1.90;;;22.40;65.20;;;;;;5061411;28;20028;-73
2023/05/01 12:44:17;;;;;;;4.80;1.92;;;22.30;63.00;;;;;;5053423;28;20496;-72
2023/05/01 12:46:43;;;;;;;1.92;1.73;;;22.80;65.50;;;;;;5042876;28;20042;-73
2023/05/01 12:49:18;;;;;;;3.22;2.30;;;22.80;65.80;;;;;;5067227;28;20041;-71